METAR Data
IDs: Format: Raw Decoded Include TAF

Data at: 1647 UTC 18 Feb 2019

KERV 181635Z AUTO 09011KT 10SM CLR 11/M06 A3020 RMK AO2 T01061065
KERV 181615Z AUTO 08011G15KT 10SM CLR 11/M05 A3019 RMK AO2 T01061055
KERV 181555Z AUTO 06007G15KT 10SM CLR 09/M05 A3019 RMK AO2 T00921055
KERV 181535Z AUTO 05010KT 10SM CLR 08/M05 A3017 RMK AO2 T00801050
KERV 181515Z AUTO 05007KT 10SM CLR 07/M05 A3017 RMK AO2 T00681051
KERV 181455Z AUTO 06008KT 020V090 10SM CLR 06/M05 A3016 RMK AO2 T00601051
KERV 181435Z AUTO 07004KT 10SM CLR 06/M04 A3016 RMK AO2 T00561045
KERV 181415Z AUTO 04006KT 10SM CLR 05/M05 A3014 RMK AO2 T00501049
KERV 181355Z AUTO 05006KT 10SM CLR 05/M05 A3013 RMK AO2 T00501047
KERV 181335Z AUTO 05005KT 10SM CLR 05/M04 A3013 RMK AO2 T00501045
KERV 181315Z AUTO 04005KT 10SM CLR 05/M05 A3012 RMK AO2 T00501046
KERV 181255Z AUTO 04004KT 10SM CLR 05/M05 A3012 RMK AO2 T00501046

KT82 181635Z AUTO 07012G17KT 10SM CLR 09/M04 A3020 RMK AO2 T00921039
KT82 181615Z AUTO 07012G15KT 10SM CLR 08/M03 A3020 RMK AO2 T00791032
KT82 181555Z AUTO 06011KT 10SM CLR 07/M03 A3020 RMK AO2 T00701032
KT82 181535Z AUTO 06011KT 10SM CLR 07/M03 A3020 RMK AO2 T00661033
KT82 181515Z AUTO 07009KT 10SM CLR 06/M04 A3019 RMK AO2 T00571038
KT82 181455Z AUTO 07008KT 10SM CLR 05/M04 A3018 RMK AO2 T00541039
KT82 181435Z AUTO 06008KT 10SM CLR 05/M04 A3017 RMK AO2 T00511044
KT82 181415Z AUTO 07008KT 10SM CLR 05/M04 A3016 RMK AO2 T00481043
KT82 181355Z AUTO 06007KT 10SM CLR 05/M04 A3016 RMK AO2 T00451045
KT82 181335Z AUTO 07006KT 10SM CLR 05/M05 A3014 RMK AO2 T00451046
KT82 181315Z AUTO 06007KT 10SM CLR 05/M04 A3014 RMK AO2 T00451045
KT82 181255Z AUTO 06006KT 10SM CLR 05/M04 A3013 RMK AO2 T00461044

KJCT 181551Z AUTO 07012KT 10SM CLR 06/M03 A3021 RMK AO2 SLP217 T00611033
KJCT 181451Z AUTO 07011KT 10SM CLR 06/M02 A3019 RMK AO2 SLP210 T00561022 53021
KJCT 181351Z AUTO 07012KT 10SM CLR 05/M03 A3016 RMK AO2 SLP197 T00501033
KJCT 181251Z AUTO 08009KT 10SM CLR 05/M03 A3014 RMK AO2 SLP191 T00501028

K5C1 181635Z AUTO 07013G19KT 10SM CLR 11/M05 A3019 RMK AO1
K5C1 181615Z AUTO 08014KT 10SM CLR 10/M05 A3020 RMK AO1
K5C1 181555Z AUTO 07011G18KT 10SM CLR 09/M05 A3019 RMK AO1
K5C1 181535Z AUTO 07014G17KT 10SM CLR 08/M05 A3019 RMK AO1
K5C1 181515Z AUTO 07015G19KT 10SM CLR 08/M05 A3018 RMK AO1
K5C1 181455Z AUTO 06010KT 10SM CLR 07/M05 A3018 RMK AO1
K5C1 181435Z AUTO 05008G16KT 10SM CLR 07/M04 A3017 RMK AO1
K5C1 181415Z AUTO 05007KT 10SM CLR 06/M03 A3016 RMK AO1
K5C1 181355Z AUTO 03006KT 10SM CLR 05/M03 A3015 RMK AO1
K5C1 181335Z AUTO 03005KT 10SM CLR 04/M03 A3014 RMK AO1
K5C1 181315Z AUTO 02005KT 10SM CLR 04/M04 A3013 RMK AO1
K5C1 181255Z AUTO 02006KT 10SM CLR 04/M04 A3013 RMK AO1

KHDO 181551Z AUTO 06016KT 10SM CLR 13/M03 A3018 RMK AO2 SLP214 T01281033 $
KHDO 181451Z AUTO 07012KT 10SM CLR 11/M04 A3016 RMK AO2 SLP206 T01061039 53024 $
KHDO 181351Z AUTO 05007KT 10SM CLR 08/M03 A3013 RMK AO2 SLP197 T00781033 $
KHDO 181251Z AUTO 06006KT 10SM CLR 06/M04 A3010 RMK AO2 SLP187 T00561039 $

KUVA 181635Z AUTO 09010G15KT 10SM CLR 12/M04 A3022 RMK AO2 T01151041
KUVA 181615Z AUTO 07012G15KT 10SM CLR 11/M04 A3020 RMK AO2 T01141040
KUVA 181555Z AUTO 05009KT 10SM CLR 10/M05 A3020 RMK AO2 T01041047
KUVA 181535Z AUTO 04008KT 10SM CLR 10/M05 A3020 RMK AO2 T00961048
KUVA 181515Z AUTO 02006KT 10SM CLR 09/M04 A3020 RMK AO2 T00871037
KUVA 181455Z AUTO 05004KT 10SM CLR 08/M03 A3018 RMK AO2 T00771029
KUVA 181435Z AUTO 00000KT 10SM CLR 07/M02 A3017 RMK AO2 T00661019
KUVA 181415Z AUTO 00000KT 10SM CLR 05/M01 A3017 RMK AO2 T00471013
KUVA 181355Z AUTO 00000KT 10SM CLR 05/M03 A3016 RMK AO2 T00501034
KUVA 181335Z AUTO 00000KT 10SM CLR 04/M03 A3015 RMK AO2 T00441030
KUVA 181315Z AUTO 00000KT 10SM CLR 04/M03 A3013 RMK AO2 T00411033
KUVA 181255Z AUTO 00000KT 10SM CLR 05/M03 A3013 RMK AO2 T00501035

KSAT 181551Z 06011G22KT 10SM SCT250 11/M04 A3018 RMK AO2 SLP210 T01111039
KSAT 181451Z 04013G20KT 10SM BKN250 09/M03 A3017 RMK AO2 SLP205 T00941033 53023
KSAT 181351Z 04011G15KT 10SM FEW170 BKN250 08/M04 A3014 RMK AO2 SLP196 T00781039
KSAT 181251Z 02008KT 10SM BKN170 07/M04 A3012 RMK AO2 SLP188 T00721044

KSSF 181553Z 06015G20KT 10SM CLR 11/M03 A3016 RMK AO2 SLP215 T01111033
KSSF 181453Z 05010G19KT 10SM CLR 10/M04 A3015 RMK AO2 SLP211 T01001039 53025
KSSF 181353Z 05012G17KT 10SM CLR 09/M05 A3012 RMK AO2 SLP200 T00891050
KSSF 181253Z 03009KT 10SM CLR 08/M06 A3009 RMK AO2 SLP190 T00831056